M I D A S
Marine Information and Data Acquisition System
Tripno 753 of the Zeeleeuw from 2004-07-29 09:05:46 to 2004-07-29 12:11:41
Back to CruiseResearch ActivitiesStationsMapUnderway DataData graphs

EquipmentUnitsComment
TimeDGPSUTC
LatitudeDGPSDM.mWGS84
LongitudeDGPSDM.mWGS84
HeadingGyrodeg 
SOGDGPSknotsSpeed over ground
COGDGPSdegCourse over ground
DepthEcho soundermeters200 kHz
Missing or incorrect values are displayed as -999
Navigation data collected by the RV Zeeleeuw from 2004-07-29 09:05:46 to 2004-07-29 12:11:41
Time Latitude Longitude Heading SOG COG Depth
2004-07-29 09:06:50 51°10.944 2°26.914 249 12 246 23.5
2004-07-29 09:07:50 51°10.921 2°26.608 282.3 12 285 24.1
2004-07-29 09:08:50 51°11.015 2°26.32 305.2 12.5 312 22.1
2004-07-29 09:09:53 51°11.199 2°26.122 332.1 13 339 17.8
2004-07-29 09:10:51 51°11.413 2°26.1 358.7 13.6 1 13.1
2004-07-29 09:11:53 51°11.65 2°26.103 357.7 14   19.2
2004-07-29 09:12:53 51°11.884 2°26.102 358.7 14.1   22.8
2004-07-29 09:13:52 51°12.118 2°26.104 359.8 14.3 1 27.4
2004-07-29 09:14:52 51°12.355 2°26.107 358.9 14.4 3 28.3
2004-07-29 09:15:53 51°12.597 2°26.171 10.2 14.5 11 28.1
2004-07-29 09:16:53 51°12.834 2°26.239 9.4 14.5 10 28.2
2004-07-29 09:17:52 51°13.068 2°26.306 9.7 14.5 10 28.7
2004-07-29 09:18:52 51°13.306 2°26.374 10.2 14.5 12 29.4
2004-07-29 09:19:52 51°13.527 2°26.538 30.3 14.8 31 29.6
2004-07-29 09:20:53 51°13.729 2°26.777 40.1 14.9 40 29.1
2004-07-29 09:21:52 51°13.911 2°27.035 44.7 14.9 42 29.4
2004-07-29 09:22:53 51°14.098 2°27.3 44.1 14.8 42 29.9
2004-07-29 09:23:53 51°14.281 2°27.566 43.7 14.9 42 30.1
2004-07-29 09:24:53 51°14.466 2°27.831 44.3 14.9 43 30.8
2004-07-29 09:25:53 51°14.649 2°28.098 43.7 15 42 30.8
2004-07-29 09:26:53 51°14.833 2°28.361 43.6 14.9 42 31.1
2004-07-29 09:27:53 51°15.017 2°28.625 43.7 14.8 42 30.4
2004-07-29 09:28:53 51°15.198 2°28.89 44.6 14.7 42 30.9
2004-07-29 09:29:53 51°15.379 2°29.152 45.8 14.7 44 31.5
2004-07-29 09:30:53 51°15.56 2°29.415 45.8 14.7 43 31
2004-07-29 09:31:52 51°15.739 2°29.672 44.3 14.7 42 30.7
2004-07-29 09:32:53 51°15.927 2°29.934 44.5 14.7 42 31
2004-07-29 09:33:53 51°16.107 2°30.198 45.2 14.8 43 31.2
2004-07-29 09:34:52 51°16.287 2°30.453 43.5 14.7 41 31.2
2004-07-29 09:35:53 51°16.473 2°30.719 44.6 14.7 42 30.6
2004-07-29 09:36:53 51°16.657 2°30.975 44.8 14.7 41 29.5
2004-07-29 09:37:53 51°16.841 2°31.233 44.2 14.8 42 30.2
2004-07-29 09:38:52 51°17.023 2°31.487 44.1 14.7 42 27.9
2004-07-29 09:39:53 51°17.208 2°31.752 45 14.8 44 29
2004-07-29 09:40:53 51°17.38 2°32.029 45.6 14.7 42 28.2
2004-07-29 09:41:53 51°17.566 2°32.286 43.7 14.8 40 28
2004-07-29 09:42:53 51°17.75 2°32.544 45.1 14.7 42 27.1
2004-07-29 09:43:53 51°17.935 2°32.801 43.6 14.7 40 25.6
2004-07-29 09:44:53 51°18.118 2°33.059 45.2 14.7 42 23.5
2004-07-29 09:45:53 51°18.302 2°33.316 45.1 14.6 42 21.4
2004-07-29 09:46:53 51°18.484 2°33.57 44 14.6 41 18.3
2004-07-29 09:47:53 51°18.669 2°33.828 45 14.8 43 19.3
2004-07-29 09:48:53 51°18.851 2°34.091 45.7 14.8 42 19.4
2004-07-29 09:49:53 51°19.031 2°34.36 47.6 14.8 44 19.2
2004-07-29 09:50:53 51°19.208 2°34.633 47 14.8 44 19
2004-07-29 09:51:53 51°19.384 2°34.908 48.3 14.8 45 19.3
2004-07-29 09:52:53 51°19.539 2°35.212 60 14.8 56 19.8
2004-07-29 09:53:53 51°19.665 2°35.552 65.3 14.9 61 21.9
2004-07-29 09:54:53 51°19.775 2°35.904 69.3 14.8 64 22.8
2004-07-29 09:55:53 51°19.886 2°36.254 67.7 14.7 63 23.7
2004-07-29 09:56:53 51°19.995 2°36.606 70.4 14.7 65 23.9
2004-07-29 09:57:53 51°20.101 2°36.96 70.2 14.8 65 26.5
2004-07-29 09:58:57 51°20.215 2°37.338 69.8 14.8 65 24.3
2004-07-29 09:59:56 51°20.322 2°37.686 68.8 14.8 64 25.1
2004-07-29 10:00:57 51°20.431 2°38.048 71.5 14.9 67 25.4
2004-07-29 10:01:57 51°20.525 2°38.409 72.7 14.8 67 26.4
2004-07-29 10:02:54 51°20.617 2°38.752 72.8 14.7 68 26.8
2004-07-29 10:04:01 51°20.724 2°39.153 72.2 14.7 67 27
2004-07-29 10:05:01 51°20.822 2°39.509 72.7 14.6 67 26.8
2004-07-29 10:06:01 51°20.919 2°39.864 71.8 14.5 64 28.4
2004-07-29 10:07:02 51°21.059 2°40.191 62.4 14.8 55 27.5
2004-07-29 10:08:02 51°21.235 2°40.457 35.9 14.7 28 28.9
2004-07-29 10:09:01 51°21.469 2°40.494 358.5 14.5 356 30
2004-07-29 10:10:02 51°21.716 2°40.49 3.8 14.6 1 29.5
2004-07-29 10:11:02 51°21.958 2°40.483 359.7 14.5 358 29.4
2004-07-29 10:12:02 51°22.2 2°40.474 1 14.6 359 31
2004-07-29 10:13:02 51°22.442 2°40.471 0.8 14.5 359 32.1
2004-07-29 10:14:01 51°22.681 2°40.468 2.2 14.6   31.6
2004-07-29 10:15:02 51°22.927 2°40.463 0.7 14.5 359 31.2
2004-07-29 10:16:02 51°23.17 2°40.464 1.7 14.6   31.5
2004-07-29 10:17:02 51°23.412 2°40.478 10.9 14.7 12 31.2
2004-07-29 10:18:02 51°23.634 2°40.649 40.6 15 37 31
2004-07-29 10:19:01 51°23.841 2°40.866 34.8 15.2 31 31.1
2004-07-29 10:20:02 51°24.064 2°41.07 33.4 15.2 30 28.8
2004-07-29 10:21:02 51°24.282 2°41.274 35.1 15.2 32 29.7
2004-07-29 10:22:02 51°24.501 2°41.483 33.5 15.2 30 27.7
2004-07-29 10:23:02 51°24.718 2°41.688 33.3 15 30 28.2
2004-07-29 10:24:02 51°24.935 2°41.891 32.6 15 29 27.7
2004-07-29 10:25:02 51°25.145 2°42.107 36.6 15 33 24.5
2004-07-29 10:26:01 51°25.35 2°42.319 35.8 14.9 32 28.2
2004-07-29 10:27:02 51°25.565 2°42.531 33.9 15 31 27.8
2004-07-29 10:28:05 51°25.788 2°42.755 35.9 15.1 33 28.1
2004-07-29 10:29:05 51°26.001 2°42.967 35.7 15 32 27.6
2004-07-29 10:30:07 51°26.217 2°43.191 35.8 14.9 32 28.2
2004-07-29 10:31:04 51°26.415 2°43.389 35.3 14.7 32 25.3
2004-07-29 10:32:05 51°26.625 2°43.598 36.1 14.7 33 28.2
2004-07-29 10:33:04 51°26.828 2°43.802 34.6 14.5 31 28
2004-07-29 10:34:06 51°27.04 2°44.015 35.7 14.6 33 26.9
2004-07-29 10:35:05 51°27.243 2°44.219 35.6 14.6 33 30
2004-07-29 10:36:07 51°27.414 2°44.512 58.6 14.8 56 29.6
2004-07-29 10:37:07 51°27.483 2°44.88 89.4 14.5 83 29.9
2004-07-29 10:38:07 51°27.492 2°45.262 103.6 14.2 96 27.7
2004-07-29 10:39:06 51°27.444 2°45.623 112.4 14.1 103 30.5
2004-07-29 10:40:05 51°27.397 2°45.985 109.9 14.2 101 31.4
2004-07-29 10:41:07 51°27.347 2°46.365 110.1 14.1 101 32.1
2004-07-29 10:42:04 51°27.302 2°46.713 109.7 14 101 34.3
2004-07-29 10:43:05 51°27.252 2°47.082 111 14 103 31
2004-07-29 10:44:07 51°27.202 2°47.459 110.3 14.1 102 30.2
2004-07-29 10:45:07 51°27.158 2°47.829 111.1 14.1 102 27.6
2004-07-29 10:46:05 51°27.112 2°48.186 111.4 14.2 102 28.1
2004-07-29 10:47:06 51°27.067 2°48.561 111.3 14.1 102 26.9
2004-07-29 10:48:05 51°27.02 2°48.924 112 14.2 100 25.8
2004-07-29 10:49:06 51°26.974 2°49.3 111 14.2 101 24.5
2004-07-29 10:50:06 51°26.897 2°49.641 132.3 13.2 123 23.8
2004-07-29 10:51:07 51°26.732 2°49.864 155.3 12.6 146 22.7
2004-07-29 10:52:04 51°26.558 2°50.025 163.5 12.5 155 22.6
2004-07-29 10:53:07 51°26.358 2°50.166 167.6 12.5 159 25.2
2004-07-29 10:54:06 51°26.165 2°50.278 170 12.7 161 25.3
2004-07-29 10:55:05 51°25.967 2°50.376 171.8 12.7 164 25.2
2004-07-29 10:56:06 51°25.763 2°50.475 172 12.6 163 25.1
2004-07-29 10:57:06 51°25.56 2°50.576 170.7 12.8 163 25.3
2004-07-29 10:58:07 51°25.355 2°50.677 170.2 12.6 163 25.5
2004-07-29 10:59:07 51°25.152 2°50.773 171.3 12.7 163 24.9
2004-07-29 11:00:08 51°24.946 2°50.87 170.5 12.7 162 24.6
2004-07-29 11:01:06 51°24.751 2°50.966 172.7 12.7 164 24.7
2004-07-29 11:02:07 51°24.547 2°51.068 171.1 12.6 163 24.2
2004-07-29 11:03:06 51°24.351 2°51.165 171.8 12.5 163 24.1
2004-07-29 11:04:06 51°24.15 2°51.252 171.2 12.7 165 21.9
2004-07-29 11:05:07 51°23.945 2°51.349 171.2 12.6 164 18.6
2004-07-29 11:06:06 51°23.747 2°51.437 171.1 12.4 164 19.6
2004-07-29 11:07:07 51°23.542 2°51.526 170.4 12.7 162 17.7
2004-07-29 11:08:06 51°23.346 2°51.62 172.3 12.4 164 16.9
2004-07-29 11:09:07 51°23.146 2°51.72 170.8 12.4 162 20
2004-07-29 11:10:06 51°22.952 2°51.805 173.9 12.4 165 23.7
2004-07-29 11:11:06 51°22.755 2°51.894 173.1 12.4 164 25
2004-07-29 11:12:06 51°22.553 2°51.956 180.4 12.2 172 24.8
2004-07-29 11:13:06 51°22.351 2°51.976 187.2 12.1 179 25.4
2004-07-29 11:14:07 51°22.145 2°51.999 182.9 12.3 175 25.4
2004-07-29 11:15:07 51°21.939 2°52.024 182 12.5 174 26.1
2004-07-29 11:16:06 51°21.736 2°52.041 186 12.5 178 25.3
2004-07-29 11:17:12 51°21.508 2°52.062 183.3 12.6 176 23.1
2004-07-29 11:18:12 51°21.301 2°52.078 184.1 12.6 176 20.7
2004-07-29 11:19:12 51°21.093 2°52.097 184.7 12.6 177 18.6
2004-07-29 11:20:12 51°20.885 2°52.106 184.9 12.4 179 16.9
2004-07-29 11:21:12 51°20.675 2°52.116 184.1 12.6 178 15.5
2004-07-29 11:22:12 51°20.463 2°52.124 184.8 12.8 180 16.3
2004-07-29 11:23:12 51°20.252 2°52.124 184.4 12.8 180 16.7
2004-07-29 11:24:12 51°20.04 2°52.135 182.9 12.8 178 17.5
2004-07-29 11:25:12 51°19.828 2°52.142 183.9 12.9 179 18.1
2004-07-29 11:26:12 51°19.616 2°52.151 181.7 12.7 177 17.7
2004-07-29 11:27:12 51°19.405 2°52.169 182.2 12.5 178 17.2
2004-07-29 11:28:12 51°19.197 2°52.189 180.8 12.6 176 16.6
2004-07-29 11:29:12 51°18.989 2°52.211 178.8 12.6 174 15.6
2004-07-29 11:30:12 51°18.778 2°52.237 182 12.7 179 14.6
2004-07-29 11:31:12 51°18.566 2°52.257 179.1 12.8 175 13.6
2004-07-29 11:32:12 51°18.354 2°52.284 182.1 12.7 178 13.1
2004-07-29 11:33:12 51°18.143 2°52.303 182.1 12.5 177 12.8
2004-07-29 11:34:12 51°17.934 2°52.318 182.5 12.5 178 12.4
2004-07-29 11:35:12 51°17.725 2°52.331 180.1 12.7 175 12.2
2004-07-29 11:36:12 51°17.515 2°52.35 181.2 12.6 177 12.2
2004-07-29 11:37:12 51°17.306 2°52.37 178.6 12.6 175 12.2
2004-07-29 11:38:12 51°17.099 2°52.445 168.3 12.8 162 11.7
2004-07-29 11:39:12 51°16.897 2°52.56 164 13 159 11.8
2004-07-29 11:40:12 51°16.693 2°52.668 166.1 12.9 161 12.4
2004-07-29 11:41:12 51°16.488 2°52.768 169.9 12.8 164 13.8
2004-07-29 11:42:12 51°16.282 2°52.863 170.1 12.9 165 14.2
2004-07-29 11:43:12 51°16.075 2°52.957 169.5 13.1 164 14.1
2004-07-29 11:44:12 51°15.866 2°53.05 168.2 13.1 164 13.7
2004-07-29 11:45:12 51°15.665 2°53.187 158.2 13.1 154 13.2
2004-07-29 11:46:12 51°15.468 2°53.338 158.9 13.2 155 12.7
2004-07-29 11:47:12 51°15.27 2°53.491 157.9 13.3 153 11.8
2004-07-29 11:48:12 51°15.127 2°53.571 183.9 5.9 181 11.7
2004-07-29 11:49:12 51°15.061 2°53.537 218.4 3.2 214 11.8
2004-07-29 11:50:12 51°15.032 2°53.489 238.7 2.1 237 11.9
2004-07-29 11:51:12 51°15.005 2°53.447 210.6 2.5 197 11.9
2004-07-29 11:52:12 51°14.936 2°53.532 127.9 8.9 123 11.8
2004-07-29 11:53:12 51°14.838 2°53.784 126.1 12.1 121 11.5
2004-07-29 11:54:12 51°14.729 2°54.065 127.3 12.6 122 12
2004-07-29 11:55:12 51°14.617 2°54.344 128.9 12.6 124 12.3
2004-07-29 11:56:12 51°14.507 2°54.629 122.4 12.7 118 12.5
2004-07-29 11:57:12 51°14.406 2°54.922 124.3 12.3 122 12.3
2004-07-29 11:58:12 51°14.299 2°55.182 127.8 11.5 126 12.7
2004-07-29 11:59:12 51°14.192 2°55.349 144.8 7.9 145 13.3
2004-07-29 12:00:12 51°14.076 2°55.445 156.8 7.8 156 11.9
2004-07-29 12:01:12 51°13.957 2°55.534 156 8 154 12.9
2004-07-29 12:02:12 51°13.838 2°55.627 157.3 7.9 155 11.3
2004-07-29 12:03:12 51°13.733 2°55.733 139 6.6 136 11.6
2004-07-29 12:04:12 51°13.68 2°55.848 124 4.6 121 12
2004-07-29 12:05:10 51°13.644 2°55.943 125 4.1 122 12.2
2004-07-29 12:06:12 51°13.616 2°56.026 114.2 2.6 111 12.5
2004-07-29 12:07:12 51°13.604 2°56.073 121.2 1.8 115 9.7
2004-07-29 12:08:12 51°13.596 2°56.095 123.3 0.1 227 9.4
2004-07-29 12:09:10 51°13.595 2°56.097 122.5 0.1 137 9.4
2004-07-29 12:10:16 51°13.596 2°56.097 126.3   52 9.5
2004-07-29 12:11:15 51°13.597 2°56.098 126.4   185 -999